Time;durP1;ratioP1;P1;durP2;ratioP2;P2;SDS_P1;SDS_P2;PMS_P1;PMS_P2;Temp;Humidity;BMP_temperature;BMP_pressure;BME280_temperature;BME280_humidity;BME280_pressure;Samples;Min_cycle;Max_cycle;Signal;HPM_P1;HPM_P2
2024/04/21 00:02:00;;;;;;;9.00;3.83;;;23.10;44.60;;;;;;5431992;26;20009;-61
2024/04/21 00:04:25;;;;;;;7.10;3.42;;;23.10;44.60;;;;;;5428046;26;19999;-62
2024/04/21 00:06:51;;;;;;;6.43;3.55;;;23.20;44.70;;;;;;5428327;26;19995;-60
2024/04/21 00:09:17;;;;;;;7.40;3.88;;;23.10;44.60;;;;;;5433242;26;19994;-61
2024/04/21 00:11:43;;;;;;;6.47;3.50;;;23.10;44.70;;;;;;5429740;26;20786;-61
2024/04/21 00:14:09;;;;;;;6.78;3.78;;;23.10;44.60;;;;;;5431728;26;19996;-62
2024/04/21 00:16:34;;;;;;;7.38;3.53;;;23.10;44.70;;;;;;5433251;26;19999;-63
2024/04/21 00:19:00;;;;;;;5.70;3.10;;;23.10;44.60;;;;;;5429707;26;20048;-63
2024/04/21 00:21:26;;;;;;;6.80;3.08;;;23.00;44.60;;;;;;5424855;26;20073;-63
2024/04/21 00:23:51;;;;;;;5.65;3.08;;;23.00;44.60;;;;;;5426036;26;20050;-62
2024/04/21 00:26:17;;;;;;;6.07;3.25;;;23.00;44.60;;;;;;5431048;26;20346;-63
2024/04/21 00:28:46;;;;;;;5.13;2.88;;;23.00;44.60;;;;;;5431238;26;20007;-63
2024/04/21 00:31:12;;;;;;;5.60;2.87;;;23.00;44.60;;;;;;5429161;26;19994;-63
2024/04/21 00:33:37;;;;;;;6.00;2.97;;;22.90;44.50;;;;;;5460022;26;20224;-63
2024/04/21 00:36:03;;;;;;;5.43;2.78;;;22.90;44.50;;;;;;5428659;26;20347;-63
2024/04/21 00:38:29;;;;;;;5.40;2.80;;;22.90;44.50;;;;;;5422961;26;20006;-63
2024/04/21 00:40:55;;;;;;;5.03;2.78;;;22.90;44.50;;;;;;5429037;26;19996;-63
2024/04/21 00:43:20;;;;;;;5.60;2.67;;;22.90;44.50;;;;;;5428245;26;20048;-63
2024/04/21 00:45:47;;;;;;;6.15;3.28;;;22.80;44.50;;;;;;5428704;26;20466;-63
2024/04/21 00:48:13;;;;;;;6.28;3.03;;;22.80;44.50;;;;;;5428261;26;20035;-63
2024/04/21 00:50:42;;;;;;;6.03;3.17;;;22.80;44.50;;;;;;5430664;26;19999;-63
2024/04/21 00:53:11;;;;;;;5.47;2.80;;;22.80;44.40;;;;;;5428249;26;19998;-63
2024/04/21 00:55:38;;;;;;;6.13;3.40;;;22.80;44.50;;;;;;5429450;26;20324;-63
2024/04/21 00:58:05;;;;;;;7.95;3.30;;;22.70;44.40;;;;;;5441601;26;19994;-63
2024/04/21 01:00:32;;;;;;;5.47;2.60;;;22.70;44.40;;;;;;5425318;26;20014;-63
2024/04/21 01:02:57;;;;;;;4.78;2.70;;;22.70;44.40;;;;;;5431034;26;20000;-63
2024/04/21 01:05:23;;;;;;;4.47;2.60;;;22.70;44.40;;;;;;5430167;26;20047;-63
2024/04/21 01:07:49;;;;;;;4.80;2.70;;;22.70;44.40;;;;;;5429123;26;20014;-63
2024/04/21 01:10:15;;;;;;;5.10;2.78;;;22.70;44.40;;;;;;5434711;26;20026;-63
2024/04/21 01:12:41;;;;;;;5.00;2.80;;;22.70;44.40;;;;;;5427061;26;19999;-63
2024/04/21 01:15:08;;;;;;;5.07;2.72;;;22.60;44.40;;;;;;5427986;26;20007;-63
2024/04/21 01:17:34;;;;;;;4.18;2.67;;;22.60;44.40;;;;;;5429419;26;20285;-62
2024/04/21 01:20:00;;;;;;;4.95;2.50;;;22.60;44.40;;;;;;5421391;26;20026;-62
2024/04/21 01:22:25;;;;;;;5.43;2.60;;;22.60;44.40;;;;;;5425028;26;20023;-63
2024/04/21 01:24:51;;;;;;;5.25;2.42;;;22.60;44.40;;;;;;5425691;26;20007;-62
2024/04/21 01:27:17;;;;;;;4.93;2.42;;;22.60;44.40;;;;;;5429051;26;20011;-62
2024/04/21 01:29:42;;;;;;;4.85;2.75;;;22.50;44.40;;;;;;5429880;26;20003;-62
2024/04/21 01:32:21;;;;;;;5.72;2.50;;;22.50;44.40;;;;;;5425043;26;19999;-62
2024/04/21 01:34:47;;;;;;;5.57;2.83;;;22.50;44.40;;;;;;5427555;26;20402;-62
2024/04/21 01:37:15;;;;;;;4.45;2.60;;;22.50;44.40;;;;;;5424788;26;20003;-62
2024/04/21 01:39:41;;;;;;;4.18;2.40;;;22.50;44.40;;;;;;5427805;26;19995;-62
2024/04/21 01:42:06;;;;;;;4.40;2.38;;;22.40;44.40;;;;;;5428889;26;20657;-61
2024/04/21 01:44:32;;;;;;;4.38;2.30;;;22.50;44.40;;;;;;5428692;26;20079;-61
2024/04/21 01:46:58;;;;;;;4.88;2.50;;;22.40;44.40;;;;;;5426223;26;20003;-62
2024/04/21 01:49:23;;;;;;;4.20;2.20;;;22.40;44.40;;;;;;5426405;26;20034;-62
2024/04/21 01:51:49;;;;;;;3.92;2.25;;;22.40;44.40;;;;;;5426645;26;20029;-61
2024/04/21 01:54:14;;;;;;;4.00;2.10;;;22.30;44.40;;;;;;5424044;26;20011;-62
2024/04/21 01:56:40;;;;;;;4.13;2.45;;;22.30;44.40;;;;;;5429059;26;20071;-62
2024/04/21 01:59:05;;;;;;;3.85;2.10;;;22.30;44.40;;;;;;5426412;26;20072;-61
2024/04/21 02:01:31;;;;;;;3.80;2.00;;;22.30;44.40;;;;;;5426645;26;20013;-62
2024/04/21 02:03:57;;;;;;;3.85;2.22;;;22.30;44.40;;;;;;5427556;26;20000;-62
2024/04/21 02:06:22;;;;;;;3.88;2.10;;;22.30;44.40;;;;;;5426390;26;19999;-61
2024/04/21 02:08:48;;;;;;;3.85;2.03;;;22.30;44.40;;;;;;5425354;26;20476;-62
2024/04/21 02:11:14;;;;;;;3.88;2.03;;;22.30;44.50;;;;;;5421667;26;20010;-61
2024/04/21 02:13:39;;;;;;;3.92;2.10;;;22.20;45.00;;;;;;5426127;26;19995;-61
2024/04/21 02:16:05;;;;;;;4.20;2.10;;;22.20;44.50;;;;;;5424885;26;20311;-61
2024/04/21 02:18:31;;;;;;;3.95;1.98;;;22.20;44.50;;;;;;5425184;26;20478;-63
2024/04/21 02:20:56;;;;;;;4.05;1.90;;;22.20;44.50;;;;;;5431181;26;20010;-63
2024/04/21 02:23:22;;;;;;;4.32;2.05;;;22.20;44.50;;;;;;5428264;26;20007;-63
2024/04/21 02:25:58;;;;;;;3.10;1.83;;;22.20;44.50;;;;;;5431445;26;19999;-63
2024/04/21 02:28:24;;;;;;;3.60;1.98;;;22.10;44.50;;;;;;5430602;26;19999;-63
2024/04/21 02:30:49;;;;;;;3.38;1.70;;;22.10;44.50;;;;;;5429246;26;20013;-63
2024/04/21 02:33:15;;;;;;;3.10;1.75;;;22.10;44.50;;;;;;5428483;26;19999;-63
2024/04/21 02:35:41;;;;;;;3.17;1.77;;;22.10;44.50;;;;;;5429097;26;20419;-63
2024/04/21 02:38:09;;;;;;;2.97;1.65;;;22.10;44.50;;;;;;5430427;26;20015;-63
2024/04/21 02:40:34;;;;;;;3.55;1.85;;;22.10;45.10;;;;;;5427448;26;20003;-62
2024/04/21 02:43:00;;;;;;;3.28;1.70;;;22.10;44.60;;;;;;5430114;26;19998;-63
2024/04/21 02:45:26;;;;;;;3.45;1.70;;;22.10;44.60;;;;;;5427216;26;20352;-63
2024/04/21 02:47:51;;;;;;;3.13;1.50;;;22.00;44.50;;;;;;5425025;26;20010;-63
2024/04/21 02:50:17;;;;;;;3.58;1.92;;;22.00;44.50;;;;;;5430674;26;19999;-63
2024/04/21 02:52:42;;;;;;;2.53;1.45;;;22.00;44.50;;;;;;5427529;26;19996;-63
2024/04/21 02:55:08;;;;;;;3.95;2.22;;;22.00;44.60;;;;;;5429392;26;20351;-63
2024/04/21 02:57:34;;;;;;;2.65;1.42;;;22.00;44.60;;;;;;5431898;26;20080;-63
2024/04/21 02:59:59;;;;;;;2.40;1.40;;;22.00;44.60;;;;;;5427747;26;20039;-63
2024/04/21 03:02:25;;;;;;;2.83;1.83;;;22.00;44.60;;;;;;5430761;26;20045;-62
2024/04/21 03:04:51;;;;;;;3.50;1.90;;;22.00;44.60;;;;;;5432409;26;20011;-63
2024/04/21 03:07:17;;;;;;;2.50;1.50;;;22.00;45.20;;;;;;5433089;26;20331;-63
2024/04/21 03:09:43;;;;;;;2.92;1.60;;;21.90;44.60;;;;;;5425821;26;19996;-63
2024/04/21 03:12:08;;;;;;;3.20;1.80;;;21.90;44.60;;;;;;5430048;26;20010;-62
2024/04/21 03:14:34;;;;;;;3.25;1.40;;;21.90;44.60;;;;;;5426673;26;19995;-62
2024/04/21 03:17:02;;;;;;;3.05;1.60;;;21.90;44.70;;;;;;5428564;26;20026;-62
2024/04/21 03:19:28;;;;;;;2.90;1.55;;;21.90;44.70;;;;;;5429319;26;19994;-63
2024/04/21 03:21:53;;;;;;;3.58;1.80;;;21.80;44.60;;;;;;5427987;26;20041;-63
2024/04/21 03:24:19;;;;;;;3.63;1.67;;;21.80;44.60;;;;;;5428616;26;20007;-63
2024/04/21 03:26:44;;;;;;;3.10;1.50;;;21.90;44.70;;;;;;5430404;26;20550;-63
2024/04/21 03:29:10;;;;;;;2.97;1.50;;;21.80;44.60;;;;;;5431194;26;20023;-63
2024/04/21 03:31:36;;;;;;;2.80;1.50;;;21.80;44.60;;;;;;5430842;26;20316;-63
2024/04/21 03:34:04;;;;;;;3.13;1.63;;;21.80;44.60;;;;;;5429363;26;20014;-63
2024/04/21 03:36:30;;;;;;;3.05;1.40;;;21.80;44.60;;;;;;5426388;26;20491;-62
2024/04/21 03:38:55;;;;;;;2.25;1.50;;;21.80;44.70;;;;;;5425221;26;20360;-62
2024/04/21 03:41:21;;;;;;;2.95;1.45;;;21.80;44.70;;;;;;5431310;26;19998;-61
2024/04/21 03:43:48;;;;;;;2.80;1.70;;;21.80;44.70;;;;;;5431079;26;20467;-62
2024/04/21 03:46:13;;;;;;;2.90;1.42;;;21.80;44.70;;;;;;5428214;26;20032;-61
2024/04/21 03:48:39;;;;;;;2.40;1.40;;;21.70;44.70;;;;;;5432776;26;19998;-61
2024/04/21 03:51:05;;;;;;;2.53;1.40;;;21.70;45.20;;;;;;5425182;26;19999;-61
2024/04/21 03:53:31;;;;;;;2.38;1.30;;;21.70;44.70;;;;;;5429297;26;20610;-61
2024/04/21 03:55:57;;;;;;;3.17;1.55;;;21.70;44.70;;;;;;5430275;26;20080;-61
2024/04/21 03:58:23;;;;;;;2.15;1.20;;;21.70;44.70;;;;;;5428331;26;20439;-63
2024/04/21 04:00:49;;;;;;;2.58;1.55;;;21.70;44.70;;;;;;5430129;26;20003;-62
2024/04/21 04:03:15;;;;;;;3.15;1.55;;;21.70;44.70;;;;;;5429033;26;20003;-62
2024/04/21 04:05:45;;;;;;;1.83;1.20;;;21.70;44.70;;;;;;5429061;26;20091;-63
2024/04/21 04:08:12;;;;;;;3.03;1.48;;;21.70;44.80;;;;;;5426754;26;20324;-62
2024/04/21 04:10:42;;;;;;;2.00;1.10;;;21.70;44.80;;;;;;5432896;26;20018;-62
2024/04/21 04:13:08;;;;;;;2.50;1.20;;;21.70;44.80;;;;;;5428049;26;20466;-62
2024/04/21 04:15:34;;;;;;;2.30;1.30;;;21.70;44.80;;;;;;5430432;26;20125;-62
2024/04/21 04:17:59;;;;;;;2.58;1.50;;;21.60;44.80;;;;;;5441734;26;20463;-62
2024/04/21 04:20:25;;;;;;;2.25;1.30;;;21.60;44.80;;;;;;5428125;26;20002;-62
2024/04/21 04:22:51;;;;;;;2.47;1.45;;;21.60;44.80;;;;;;5427963;26;20459;-62
2024/04/21 04:25:16;;;;;;;1.73;1.10;;;21.60;44.80;;;;;;5427775;26;20004;-62
2024/04/21 04:27:42;;;;;;;2.83;1.23;;;21.60;44.80;;;;;;5427481;26;20035;-62
2024/04/21 04:30:08;;;;;;;2.25;1.25;;;21.60;44.80;;;;;;5430505;26;20138;-62
2024/04/21 04:32:34;;;;;;;2.33;1.30;;;21.60;44.80;;;;;;5427952;26;19999;-63
2024/04/21 04:35:00;;;;;;;2.25;1.35;;;21.60;44.90;;;;;;5432618;26;20434;-62
2024/04/21 04:37:25;;;;;;;2.40;1.20;;;21.60;44.90;;;;;;5429378;26;20420;-61
2024/04/21 04:39:51;;;;;;;2.20;1.10;;;21.60;44.90;;;;;;5425478;26;20337;-61
2024/04/21 04:42:17;;;;;;;1.85;1.10;;;21.60;44.90;;;;;;5429810;26;20011;-61
2024/04/21 04:44:43;;;;;;;2.42;1.30;;;21.50;44.80;;;;;;5429823;26;19999;-61
2024/04/21 04:47:08;;;;;;;2.42;1.15;;;21.50;44.80;;;;;;5432310;26;20014;-62
2024/04/21 04:49:34;;;;;;;2.28;1.10;;;21.50;44.80;;;;;;5427340;26;19995;-62
2024/04/21 04:51:59;;;;;;;1.88;1.20;;;21.50;44.80;;;;;;5427050;26;19999;-63
2024/04/21 04:54:25;;;;;;;1.70;1.10;;;21.50;44.90;;;;;;5423762;26;20084;-62
2024/04/21 04:56:54;;;;;;;2.20;1.17;;;21.50;44.90;;;;;;5427428;26;20079;-62
2024/04/21 04:59:21;;;;;;;2.05;1.17;;;21.50;44.90;;;;;;5427255;26;20482;-60
2024/04/21 05:01:46;;;;;;;1.85;1.20;;;21.50;44.90;;;;;;5427774;26;20021;-61
2024/04/21 05:04:12;;;;;;;2.15;1.05;;;21.50;44.90;;;;;;5430552;26;20027;-61
2024/04/21 05:06:38;;;;;;;2.25;1.33;;;21.50;45.00;;;;;;5421288;26;20043;-60
2024/04/21 05:09:04;;;;;;;1.63;1.20;;;21.50;44.90;;;;;;5421312;26;20184;-61
2024/04/21 05:11:30;;;;;;;2.03;1.00;;;21.50;45.00;;;;;;5429098;26;20365;-60
2024/04/21 05:13:59;;;;;;;1.83;1.20;;;21.50;45.00;;;;;;5441652;26;20007;-60
2024/04/21 05:16:25;;;;;;;1.77;1.00;;;21.40;44.90;;;;;;5426595;26;20004;-61
2024/04/21 05:18:50;;;;;;;2.00;1.13;;;21.40;45.00;;;;;;5426366;26;20068;-60
2024/04/21 05:21:16;;;;;;;1.77;1.10;;;21.40;45.00;;;;;;5425012;26;20096;-61
2024/04/21 05:23:41;;;;;;;1.52;1.05;;;21.40;45.00;;;;;;5422356;26;20000;-61
2024/04/21 05:26:07;;;;;;;2.53;1.23;;;21.40;45.00;;;;;;5426333;26;20004;-60
2024/04/21 05:28:33;;;;;;;1.73;1.00;;;21.40;45.00;;;;;;5432177;26;20013;-60
2024/04/21 05:30:59;;;;;;;1.70;1.02;;;21.40;45.00;;;;;;5430181;26;20027;-61
2024/04/21 05:33:26;;;;;;;1.60;1.00;;;21.40;45.00;;;;;;5427421;26;20073;-61
2024/04/21 05:35:51;;;;;;;1.63;0.90;;;21.40;45.00;;;;;;5425870;26;20018;-61
2024/04/21 05:38:17;;;;;;;1.45;0.90;;;21.40;45.00;;;;;;5428768;26;20434;-59
2024/04/21 05:40:43;;;;;;;1.65;1.00;;;21.40;45.00;;;;;;5425244;26;20017;-60
2024/04/21 05:43:08;;;;;;;1.90;1.10;;;21.30;45.00;;;;;;5427218;26;20001;-60
2024/04/21 05:45:34;;;;;;;1.60;1.10;;;21.40;45.10;;;;;;5424597;26;20412;-60
2024/04/21 05:48:00;;;;;;;2.97;1.20;;;21.30;45.00;;;;;;5429467;26;20343;-62
2024/04/21 05:50:25;;;;;;;1.40;0.90;;;21.30;45.00;;;;;;5430247;26;20448;-62
2024/04/21 05:52:51;;;;;;;1.60;1.00;;;21.30;45.00;;;;;;5426166;26;20325;-62
2024/04/21 05:55:16;;;;;;;1.38;0.90;;;21.30;45.00;;;;;;5428249;26;20007;-62
2024/04/21 05:57:42;;;;;;;1.35;0.98;;;21.30;45.00;;;;;;5424793;26;20006;-62
2024/04/21 06:00:08;;;;;;;1.60;0.90;;;21.30;45.10;;;;;;5434844;26;20323;-62
2024/04/21 06:02:34;;;;;;;1.52;0.98;;;21.30;45.10;;;;;;5429968;26;19995;-62
2024/04/21 06:05:01;;;;;;;1.52;1.00;;;21.30;45.10;;;;;;5430000;26;19993;-62
2024/04/21 06:07:26;;;;;;;1.73;0.90;;;21.30;45.10;;;;;;5430048;26;20040;-64
2024/04/21 06:09:52;;;;;;;1.90;0.93;;;21.30;45.10;;;;;;5425799;26;20443;-65
2024/04/21 06:12:18;;;;;;;1.77;0.90;;;21.30;45.10;;;;;;5429769;26;19996;-65
2024/04/21 06:14:43;;;;;;;1.40;0.90;;;21.30;45.10;;;;;;5429452;26;20025;-64
2024/04/21 06:17:09;;;;;;;1.70;0.93;;;21.30;45.10;;;;;;5425277;26;20007;-64
2024/04/21 06:19:35;;;;;;;1.10;0.80;;;21.30;45.10;;;;;;5438493;26;19994;-65
2024/04/21 06:22:01;;;;;;;1.25;0.80;;;21.30;45.10;;;;;;5430162;26;20007;-65
2024/04/21 06:24:26;;;;;;;1.58;1.00;;;21.20;45.10;;;;;;5420552;26;20011;-64
2024/04/21 06:26:52;;;;;;;1.77;0.95;;;21.20;45.10;;;;;;5428251;26;19999;-65
2024/04/21 06:29:17;;;;;;;1.80;1.00;;;21.20;45.20;;;;;;5427711;26;20132;-64
2024/04/21 06:31:43;;;;;;;1.33;0.90;;;21.20;45.20;;;;;;5429932;26;20007;-64
2024/04/21 06:34:10;;;;;;;1.63;1.00;;;21.20;45.70;;;;;;5424651;26;20038;-65
2024/04/21 06:36:35;;;;;;;1.75;1.02;;;21.20;45.20;;;;;;5424913;26;20055;-64
2024/04/21 06:39:01;;;;;;;1.95;1.00;;;21.20;45.30;;;;;;5428984;26;20014;-65
2024/04/21 06:41:26;;;;;;;1.70;1.00;;;21.20;45.30;;;;;;5427543;26;19999;-64
2024/04/21 06:43:52;;;;;;;2.42;1.10;;;21.20;45.30;;;;;;5430184;26;19995;-65
2024/04/21 06:46:18;;;;;;;1.80;1.00;;;21.20;45.40;;;;;;5429925;26;20104;-64
2024/04/21 06:48:44;;;;;;;1.50;0.90;;;21.20;45.40;;;;;;5433648;26;21047;-65
2024/04/21 06:51:10;;;;;;;1.63;0.93;;;21.10;45.40;;;;;;5433104;26;19999;-64
2024/04/21 06:53:35;;;;;;;1.10;0.80;;;21.10;45.40;;;;;;5427997;26;20114;-65
2024/04/21 06:56:01;;;;;;;1.20;0.95;;;21.10;45.40;;;;;;5429425;26;20003;-65
2024/04/21 06:58:26;;;;;;;2.10;0.80;;;21.10;45.40;;;;;;5426960;26;20031;-61
2024/04/21 07:00:52;;;;;;;1.80;1.00;;;21.10;45.40;;;;;;5429289;26;20045;-60
2024/04/21 07:03:18;;;;;;;1.30;0.80;;;21.10;45.40;;;;;;5428570;26;20007;-61
2024/04/21 07:05:43;;;;;;;1.73;0.90;;;21.10;45.40;;;;;;5426428;26;20007;-60
2024/04/21 07:08:09;;;;;;;1.58;0.90;;;21.10;45.50;;;;;;5435298;26;20010;-60
2024/04/21 07:10:35;;;;;;;1.35;0.80;;;21.10;45.50;;;;;;5424061;26;20014;-60
2024/04/21 07:13:00;;;;;;;1.52;0.90;;;21.10;45.60;;;;;;5425485;26;20334;-61
2024/04/21 07:15:27;;;;;;;1.30;0.90;;;21.10;45.50;;;;;;5427442;26;20029;-62
2024/04/21 07:17:53;;;;;;;1.17;0.90;;;21.10;45.60;;;;;;5430133;26;19999;-60
2024/04/21 07:20:21;;;;;;;1.38;0.82;;;21.10;45.60;;;;;;5428436;26;20505;-61
2024/04/21 07:22:47;;;;;;;1.70;0.88;;;21.10;45.70;;;;;;5427371;26;20009;-60
2024/04/21 07:25:14;;;;;;;1.50;0.95;;;21.10;45.70;;;;;;5426964;26;19999;-61
2024/04/21 07:27:40;;;;;;;1.52;1.02;;;21.10;45.70;;;;;;5430132;26;20072;-60
2024/04/21 07:30:07;;;;;;;1.67;1.02;;;21.10;45.80;;;;;;5432839;26;20446;-60
2024/04/21 07:32:32;;;;;;;1.30;0.90;;;21.10;45.80;;;;;;5428061;26;20031;-60
2024/04/21 07:34:58;;;;;;;1.35;0.90;;;21.10;45.80;;;;;;5429969;26;20482;-61
2024/04/21 07:37:23;;;;;;;1.35;0.90;;;21.10;45.80;;;;;;5429097;26;19999;-60
2024/04/21 07:39:49;;;;;;;1.70;1.00;;;21.10;45.80;;;;;;5427373;26;19995;-61
2024/04/21 07:42:15;;;;;;;1.05;0.80;;;21.10;45.80;;;;;;5427032;26;19999;-61
2024/04/21 07:44:40;;;;;;;1.45;0.98;;;21.10;45.90;;;;;;5428920;26;19996;-60
2024/04/21 07:47:06;;;;;;;1.50;0.88;;;21.10;45.80;;;;;;5431772;26;20006;-61
2024/04/21 07:49:31;;;;;;;1.35;0.90;;;21.10;46.40;;;;;;5434449;26;20425;-61
2024/04/21 07:51:57;;;;;;;1.13;0.80;;;21.10;45.90;;;;;;5430318;26;19995;-60
2024/04/21 07:54:23;;;;;;;1.50;0.90;;;21.10;45.90;;;;;;5428522;26;20476;-60
2024/04/21 07:56:48;;;;;;;1.65;0.90;;;21.10;45.90;;;;;;5430242;26;20031;-61
2024/04/21 07:59:14;;;;;;;1.45;1.00;;;21.10;46.00;;;;;;5430928;26;19999;-61
2024/04/21 08:01:40;;;;;;;0.95;0.77;;;21.10;46.00;;;;;;5434553;26;20031;-60
2024/04/21 08:04:05;;;;;;;1.50;0.80;;;21.10;46.10;;;;;;5425872;26;20014;-60
2024/04/21 08:06:31;;;;;;;0.98;0.75;;;21.00;46.10;;;;;;5430995;26;20019;-61
2024/04/21 08:08:57;;;;;;;1.38;0.90;;;21.10;46.10;;;;;;5426881;26;20019;-62
2024/04/21 08:11:23;;;;;;;1.55;0.90;;;21.10;46.10;;;;;;5424089;26;20003;-62
2024/04/21 08:13:49;;;;;;;1.27;0.90;;;21.00;46.20;;;;;;5432142;26;20004;-61
2024/04/21 08:16:14;;;;;;;1.65;1.00;;;21.00;46.20;;;;;;5428549;26;20348;-62
2024/04/21 08:18:40;;;;;;;1.42;0.90;;;21.00;46.30;;;;;;5428414;26;20018;-60
2024/04/21 08:21:06;;;;;;;1.77;1.10;;;21.00;46.30;;;;;;5426127;26;20452;-60
2024/04/21 08:23:31;;;;;;;1.30;0.90;;;21.00;46.80;;;;;;5431247;26;20398;-60
2024/04/21 08:25:59;;;;;;;1.52;1.00;;;21.10;46.40;;;;;;5427926;26;20014;-60
2024/04/21 08:28:26;;;;;;;1.88;1.08;;;21.10;46.50;;;;;;5430314;26;19999;-64
2024/04/21 08:30:51;;;;;;;1.67;1.00;;;21.10;46.50;;;;;;5429292;26;19999;-64
2024/04/21 08:33:17;;;;;;;1.00;0.80;;;21.00;46.50;;;;;;5429550;26;20077;-64
2024/04/21 08:35:57;;;;;;;2.63;0.90;;;21.00;46.50;;;;;;5428682;26;20036;-64
2024/04/21 08:38:23;;;;;;;1.48;0.90;;;21.10;46.60;;;;;;5427255;26;20414;-64
2024/04/21 08:40:50;;;;;;;1.83;0.98;;;21.00;46.50;;;;;;5423189;26;20443;-64
2024/04/21 08:43:26;;;;;;;1.52;0.90;;;21.00;47.10;;;;;;5427112;26;20010;-64
2024/04/21 08:45:53;;;;;;;1.40;0.90;;;21.10;46.60;;;;;;5430012;26;20477;-64
2024/04/21 08:48:20;;;;;;;1.60;0.90;;;21.10;46.60;;;;;;5430965;26;20485;-64
2024/04/21 08:50:46;;;;;;;1.63;1.10;;;21.10;46.60;;;;;;5429635;26;20017;-66
2024/04/21 08:53:13;;;;;;;2.70;1.20;;;21.10;46.60;;;;;;5438583;26;20018;-66
2024/04/21 08:55:40;;;;;;;2.08;1.00;;;21.10;46.60;;;;;;5429776;26;20460;-66
2024/04/21 08:58:10;;;;;;;1.67;1.08;;;21.10;46.60;;;;;;5433605;26;20000;-66
2024/04/21 09:00:38;;;;;;;1.75;1.05;;;21.20;46.60;;;;;;5436846;26;20032;-66
2024/04/21 09:03:04;;;;;;;2.10;1.13;;;21.20;46.60;;;;;;5432078;26;19998;-66
2024/04/21 09:05:32;;;;;;;1.35;0.80;;;21.20;46.60;;;;;;5423823;26;19998;-66
2024/04/21 09:07:58;;;;;;;1.33;0.90;;;21.20;46.70;;;;;;5437748;26;20006;-66
2024/04/21 09:10:24;;;;;;;1.30;0.90;;;21.30;46.70;;;;;;5438727;26;19995;-63
2024/04/21 09:12:50;;;;;;;2.08;1.10;;;21.30;46.60;;;;;;5436919;26;20000;-63
2024/04/21 09:15:16;;;;;;;2.05;1.10;;;21.30;46.50;;;;;;5443250;26;20529;-63
2024/04/21 09:17:43;;;;;;;1.40;0.93;;;21.40;46.50;;;;;;5439818;26;20014;-63
2024/04/21 09:20:10;;;;;;;1.70;1.00;;;21.40;47.00;;;;;;5440848;26;20057;-63
2024/04/21 09:22:36;;;;;;;1.33;0.90;;;21.40;46.50;;;;;;5432051;26;20005;-63
2024/04/21 09:25:03;;;;;;;1.08;0.80;;;21.40;46.40;;;;;;5435326;26;20003;-63
2024/04/21 09:27:29;;;;;;;1.88;0.90;;;21.40;46.30;;;;;;5428890;26;20002;-64
2024/04/21 09:29:57;;;;;;;1.65;0.90;;;21.50;46.40;;;;;;5424887;26;20003;-62
2024/04/21 09:32:26;;;;;;;1.65;1.00;;;21.50;46.40;;;;;;5438952;26;20470;-62
2024/04/21 09:34:53;;;;;;;1.60;1.13;;;21.50;46.30;;;;;;5443618;26;20031;-62
2024/04/21 09:37:19;;;;;;;1.40;0.90;;;21.50;46.20;;;;;;5433082;26;20269;-62
2024/04/21 09:39:49;;;;;;;1.40;0.90;;;21.60;46.30;;;;;;5429308;26;21054;-61
2024/04/21 09:42:16;;;;;;;1.00;0.90;;;21.60;46.30;;;;;;5426338;26;20426;-63
2024/04/21 09:44:43;;;;;;;1.50;1.00;;;21.60;46.20;;;;;;5436316;26;20004;-62
2024/04/21 09:47:10;;;;;;;1.42;0.95;;;21.60;46.20;;;;;;5428865;26;20393;-62
2024/04/21 09:49:36;;;;;;;1.40;1.00;;;21.60;46.10;;;;;;5429716;26;20007;-62
2024/04/21 09:52:03;;;;;;;1.35;1.00;;;21.70;46.10;;;;;;5432984;26;20023;-62
2024/04/21 09:54:29;;;;;;;1.10;0.90;;;21.70;46.10;;;;;;5432242;26;20015;-63
2024/04/21 09:57:00;;;;;;;0.93;0.80;;;21.70;46.10;;;;;;5432439;26;19999;-62
2024/04/21 09:59:30;;;;;;;1.02;0.85;;;21.70;46.00;;;;;;5425122;26;20708;-64
2024/04/21 10:01:58;;;;;;;1.58;0.93;;;21.70;46.00;;;;;;5429145;26;19999;-65
2024/04/21 10:04:28;;;;;;;4.05;1.20;;;21.80;46.00;;;;;;5433031;26;20010;-64
2024/04/21 10:06:54;;;;;;;2.22;0.88;;;21.80;46.00;;;;;;5431287;26;20023;-64
2024/04/21 10:09:22;;;;;;;2.33;1.00;;;21.80;46.00;;;;;;5439364;26;20013;-64
2024/04/21 10:11:49;;;;;;;1.20;0.90;;;21.80;45.90;;;;;;5435830;26;20027;-63
2024/04/21 10:14:16;;;;;;;1.88;0.80;;;21.90;45.90;;;;;;5439285;26;20069;-64
2024/04/21 10:16:42;;;;;;;1.52;0.98;;;21.90;45.90;;;;;;5440991;26;19999;-63
2024/04/21 10:19:08;;;;;;;1.15;0.88;;;21.90;45.90;;;;;;5443110;26;20073;-64
2024/04/21 10:21:36;;;;;;;1.08;0.85;;;21.90;45.80;;;;;;5436592;26;19999;-64
2024/04/21 10:24:03;;;;;;;2.53;0.90;;;22.00;45.80;;;;;;5432716;26;20470;-64
2024/04/21 10:26:32;;;;;;;1.70;1.00;;;22.00;45.80;;;;;;5432828;26;20017;-64
2024/04/21 10:29:11;;;;;;;1.30;0.90;;;22.00;45.70;;;;;;5428809;26;20487;-64
2024/04/21 10:31:36;;;;;;;1.00;0.90;;;22.00;45.80;;;;;;5429784;26;20051;-63
2024/04/21 10:34:09;;;;;;;1.60;0.88;;;22.00;45.80;;;;;;5428235;26;20008;-63
2024/04/21 10:36:43;;;;;;;1.38;0.80;;;22.00;45.80;;;;;;5429389;26;20343;-65
2024/04/21 10:39:10;;;;;;;1.75;0.80;;;22.00;45.70;;;;;;5429469;26;20072;-63
2024/04/21 10:41:43;;;;;;;1.58;0.93;;;22.10;45.70;;;;;;5426953;26;20004;-63
2024/04/21 10:44:12;;;;;;;2.03;0.80;;;22.10;45.70;;;;;;5423835;26;20378;-63
2024/04/21 10:46:38;;;;;;;0.98;0.90;;;22.10;45.70;;;;;;5429901;26;20336;-63
2024/04/21 10:49:05;;;;;;;1.00;0.70;;;22.10;45.70;;;;;;5426864;26;19996;-62
2024/04/21 10:51:32;;;;;;;1.30;0.90;;;22.10;45.70;;;;;;5443638;26;20017;-63
2024/04/21 10:53:58;;;;;;;1.48;0.90;;;22.10;45.70;;;;;;5430486;26;20002;-63
2024/04/21 10:56:24;;;;;;;2.40;0.90;;;22.20;45.70;;;;;;5430537;26;20790;-60
2024/04/21 10:58:49;;;;;;;1.70;1.00;;;22.20;45.60;;;;;;5425937;26;20019;-61
2024/04/21 11:01:15;;;;;;;1.95;1.10;;;22.20;45.60;;;;;;5430169;26;20323;-61
2024/04/21 11:03:43;;;;;;;2.33;1.00;;;22.20;45.60;;;;;;5427419;26;20000;-63
2024/04/21 11:06:09;;;;;;;1.50;1.00;;;22.20;45.60;;;;;;5429848;26;20000;-64
2024/04/21 11:08:35;;;;;;;1.00;0.90;;;22.30;45.60;;;;;;5429920;26;20014;-64
2024/04/21 11:11:01;;;;;;;1.40;0.80;;;22.20;45.60;;;;;;5430507;26;19999;-64
2024/04/21 11:13:30;;;;;;;1.50;1.00;;;22.30;45.60;;;;;;5432480;26;20023;-64
2024/04/21 11:15:56;;;;;;;1.23;0.75;;;22.30;45.70;;;;;;5430232;26;19995;-64
2024/04/21 11:18:22;;;;;;;0.75;0.70;;;22.30;45.70;;;;;;5430806;26;20072;-64
2024/04/21 11:20:47;;;;;;;1.42;0.90;;;22.30;45.80;;;;;;5430666;26;20009;-64
2024/04/21 11:23:16;;;;;;;1.33;0.90;;;22.30;45.70;;;;;;5432249;26;20053;-63
2024/04/21 11:25:46;;;;;;;1.70;0.80;;;22.30;45.70;;;;;;5395218;26;961024;-63
2024/04/21 11:28:12;;;;;;;1.70;0.85;;;22.40;45.80;;;;;;5425904;26;20241;-63
2024/04/21 11:30:39;;;;;;;1.70;0.90;;;22.40;45.80;;;;;;5427083;26;20452;-63
2024/04/21 11:33:05;;;;;;;2.33;0.90;;;22.40;45.90;;;;;;5422456;26;20481;-64
2024/04/21 11:35:31;;;;;;;2.08;0.98;;;22.40;45.90;;;;;;5428038;26;20003;-64
2024/04/21 11:37:56;;;;;;;1.95;1.00;;;22.40;46.00;;;;;;5429634;26;20352;-63
2024/04/21 11:40:22;;;;;;;1.85;0.93;;;22.40;46.00;;;;;;5431618;26;20067;-63
2024/04/21 11:42:48;;;;;;;0.90;0.70;;;22.50;46.20;;;;;;5426849;26;20003;-62
2024/04/21 11:45:30;;;;;;;1.52;0.90;;;22.50;46.20;;;;;;5429021;26;19995;-60
2024/04/21 11:47:57;;;;;;;2.15;0.93;;;22.50;46.30;;;;;;5428522;26;19999;-62
2024/04/21 11:50:23;;;;;;;1.40;1.00;;;22.50;46.40;;;;;;5426431;26;20003;-61
2024/04/21 11:52:49;;;;;;;1.20;0.95;;;22.50;46.50;;;;;;5430886;26;20010;-61
2024/04/21 11:55:15;;;;;;;1.35;0.98;;;22.50;46.50;;;;;;5427079;26;20003;-62
2024/04/21 11:57:43;;;;;;;1.50;0.90;;;22.50;46.50;;;;;;5426809;26;20018;-61
2024/04/21 12:00:09;;;;;;;1.60;0.90;;;22.50;46.50;;;;;;5432278;26;20003;-60
2024/04/21 12:02:35;;;;;;;1.42;1.00;;;22.60;46.50;;;;;;5433682;26;20288;-62
2024/04/21 12:05:00;;;;;;;1.80;0.90;;;22.60;46.50;;;;;;5426282;26;20080;-62
2024/04/21 12:07:26;;;;;;;1.77;0.90;;;22.60;46.50;;;;;;5427656;26;20003;-61
2024/04/21 12:09:52;;;;;;;1.88;0.88;;;22.60;46.60;;;;;;5427352;26;20528;-64
2024/04/21 12:12:17;;;;;;;1.38;0.90;;;22.60;46.60;;;;;;5429228;26;19999;-63
2024/04/21 12:14:43;;;;;;;1.52;0.90;;;22.60;46.60;;;;;;5424777;26;20003;-63
2024/04/21 12:17:11;;;;;;;1.83;1.00;;;22.60;46.70;;;;;;5428479;26;20014;-63
2024/04/21 12:19:37;;;;;;;1.08;0.90;;;22.60;46.70;;;;;;5428956;26;20031;-62
2024/04/21 12:22:02;;;;;;;1.30;0.80;;;22.60;46.70;;;;;;5427584;26;20439;-62
2024/04/21 12:24:28;;;;;;;1.20;0.80;;;22.60;46.70;;;;;;5430612;26;20003;-61
2024/04/21 12:26:54;;;;;;;1.75;1.05;;;22.60;46.70;;;;;;5426245;26;20000;-62
2024/04/21 12:29:20;;;;;;;1.50;0.90;;;22.60;46.70;;;;;;5431715;26;20466;-63
2024/04/21 12:31:46;;;;;;;1.80;1.00;;;22.60;46.70;;;;;;5428868;26;20459;-63
2024/04/21 12:34:12;;;;;;;1.35;0.90;;;22.60;46.70;;;;;;5429626;26;20009;-63
2024/04/21 12:36:37;;;;;;;1.75;1.00;;;22.60;46.80;;;;;;5430019;26;20347;-63
2024/04/21 12:39:04;;;;;;;1.40;0.85;;;22.60;46.80;;;;;;5429025;26;20014;-63
2024/04/21 12:41:30;;;;;;;1.63;1.00;;;22.60;46.90;;;;;;5428972;26;20011;-64
2024/04/21 12:43:55;;;;;;;1.65;1.20;;;22.60;46.90;;;;;;5425102;26;20011;-63